sensor_id;sensor_type;location;lat;lon;timestamp;pressure;altitude;pressure_sealevel;temperature;humidity
81704;BME280;71117;52.352;4.808;2023-08-08T00:00:15;101512.88;;;13.86;88.68
81704;BME280;71117;52.352;4.808;2023-08-08T00:02:40;101504.88;;;13.83;89.07
81704;BME280;71117;52.352;4.808;2023-08-08T00:05:06;101515.44;;;13.80;89.09
81704;BME280;71117;52.352;4.808;2023-08-08T00:07:31;101512.69;;;13.73;88.55
81704;BME280;71117;52.352;4.808;2023-08-08T00:09:57;101510.81;;;13.65;89.98
81704;BME280;71117;52.352;4.808;2023-08-08T00:12:23;101502.84;;;13.66;90.35
81704;BME280;71117;52.352;4.808;2023-08-08T00:14:48;101507.22;;;13.63;89.18
81704;BME280;71117;52.352;4.808;2023-08-08T00:17:14;101494.72;;;13.57;89.73
81704;BME280;71117;52.352;4.808;2023-08-08T00:19:39;101489.56;;;13.65;89.34
81704;BME280;71117;52.352;4.808;2023-08-08T00:22:05;101487.03;;;13.74;88.54
81704;BME280;71117;52.352;4.808;2023-08-08T00:24:31;101488.03;;;13.81;88.03
81704;BME280;71117;52.352;4.808;2023-08-08T00:26:56;101488.09;;;13.85;87.77
81704;BME280;71117;52.352;4.808;2023-08-08T00:29:21;101490.72;;;13.85;87.58
81704;BME280;71117;52.352;4.808;2023-08-08T00:31:46;101489.09;;;13.93;86.82
81704;BME280;71117;52.352;4.808;2023-08-08T00:34:12;101493.63;;;14.02;86.18
81704;BME280;71117;52.352;4.808;2023-08-08T00:36:37;101490.97;;;14.02;85.79
81704;BME280;71117;52.352;4.808;2023-08-08T00:39:02;101486.59;;;14.06;85.72
81704;BME280;71117;52.352;4.808;2023-08-08T00:41:28;101480.47;;;14.10;85.19
81704;BME280;71117;52.352;4.808;2023-08-08T00:43:53;101481.47;;;14.19;84.24
81704;BME280;71117;52.352;4.808;2023-08-08T00:46:21;101483.44;;;14.33;82.72
81704;BME280;71117;52.352;4.808;2023-08-08T00:48:46;101479.06;;;14.39;81.09
81704;BME280;71117;52.352;4.808;2023-08-08T00:51:13;101477.38;;;14.44;78.89
81704;BME280;71117;52.352;4.808;2023-08-08T00:53:38;101481.88;;;14.48;78.17
81704;BME280;71117;52.352;4.808;2023-08-08T00:56:04;101476.59;;;14.53;78.14
81704;BME280;71117;52.352;4.808;2023-08-08T00:58:30;101482.94;;;14.64;77.30
81704;BME280;71117;52.352;4.808;2023-08-08T01:00:55;101483.94;;;14.72;76.54
81704;BME280;71117;52.352;4.808;2023-08-08T01:03:22;101484.09;;;14.89;74.56
81704;BME280;71117;52.352;4.808;2023-08-08T01:05:59;101485.00;;;14.91;74.46
81704;BME280;71117;52.352;4.808;2023-08-08T01:08:32;101481.44;;;14.91;74.40
81704;BME280;71117;52.352;4.808;2023-08-08T01:11:00;101479.72;;;14.94;73.96
81704;BME280;71117;52.352;4.808;2023-08-08T01:13:28;101483.25;;;14.93;75.21
81704;BME280;71117;52.352;4.808;2023-08-08T01:15:56;101479.78;;;15.02;72.97
81704;BME280;71117;52.352;4.808;2023-08-08T01:18:22;101484.25;;;15.04;73.19
81704;BME280;71117;52.352;4.808;2023-08-08T01:20:50;101473.56;;;15.03;72.39
81704;BME280;71117;52.352;4.808;2023-08-08T01:23:30;101479.88;;;15.13;71.20
81704;BME280;71117;52.352;4.808;2023-08-08T01:25:59;101469.28;;;15.16;70.94
81704;BME280;71117;52.352;4.808;2023-08-08T01:28:24;101475.56;;;15.25;70.28
81704;BME280;71117;52.352;4.808;2023-08-08T01:30:52;101480.88;;;15.24;69.72
81704;BME280;71117;52.352;4.808;2023-08-08T01:33:17;101481.66;;;15.12;71.52
81704;BME280;71117;52.352;4.808;2023-08-08T01:35:51;101476.28;;;15.06;71.44
81704;BME280;71117;52.352;4.808;2023-08-08T01:38:27;101476.44;;;15.23;68.89
81704;BME280;71117;52.352;4.808;2023-08-08T01:40:54;101470.28;;;15.28;69.06
81704;BME280;71117;52.352;4.808;2023-08-08T01:43:22;101465.78;;;15.23;69.42
81704;BME280;71117;52.352;4.808;2023-08-08T01:45:48;101464.91;;;15.22;69.37
81704;BME280;71117;52.352;4.808;2023-08-08T01:48:14;101459.50;;;15.13;70.45
81704;BME280;71117;52.352;4.808;2023-08-08T01:50:39;101460.38;;;15.11;68.95
81704;BME280;71117;52.352;4.808;2023-08-08T01:53:04;101458.56;;;15.05;69.79
81704;BME280;71117;52.352;4.808;2023-08-08T01:55:30;101455.88;;;15.05;69.41
81704;BME280;71117;52.352;4.808;2023-08-08T01:57:56;101440.78;;;15.02;70.01
81704;BME280;71117;52.352;4.808;2023-08-08T02:00:21;101438.94;;;14.95;70.84
81704;BME280;71117;52.352;4.808;2023-08-08T02:02:47;101444.22;;;14.89;70.25
81704;BME280;71117;52.352;4.808;2023-08-08T02:05:12;101445.03;;;14.84;70.93
81704;BME280;71117;52.352;4.808;2023-08-08T02:07:38;101439.78;;;14.90;70.49
81704;BME280;71117;52.352;4.808;2023-08-08T02:10:03;101445.97;;;14.87;70.73
81704;BME280;71117;52.352;4.808;2023-08-08T02:12:29;101445.97;;;14.87;70.78
81704;BME280;71117;52.352;4.808;2023-08-08T02:14:56;101442.38;;;14.82;71.17
81704;BME280;71117;52.352;4.808;2023-08-08T02:17:21;101444.16;;;14.81;70.90
81704;BME280;71117;52.352;4.808;2023-08-08T02:19:46;101433.41;;;14.72;71.94
81704;BME280;71117;52.352;4.808;2023-08-08T02:22:12;101440.44;;;14.66;71.80
81704;BME280;71117;52.352;4.808;2023-08-08T02:24:37;101446.66;;;14.66;71.50
81704;BME280;71117;52.352;4.808;2023-08-08T02:27:02;101438.75;;;14.75;70.78
81704;BME280;71117;52.352;4.808;2023-08-08T02:29:28;101444.94;;;14.74;71.37
81704;BME280;71117;52.352;4.808;2023-08-08T02:31:53;101437.06;;;14.84;70.23
81704;BME280;71117;52.352;4.808;2023-08-08T02:34:18;101443.34;;;14.92;69.15
81704;BME280;71117;52.352;4.808;2023-08-08T02:36:44;101446.03;;;14.98;69.58
81704;BME280;71117;52.352;4.808;2023-08-08T02:39:09;101445.22;;;15.03;68.54
81704;BME280;71117;52.352;4.808;2023-08-08T02:41:34;101437.22;;;15.00;69.48
81704;BME280;71117;52.352;4.808;2023-08-08T02:44:00;101438.16;;;15.04;69.58
81704;BME280;71117;52.352;4.808;2023-08-08T02:46:25;101429.25;;;15.03;68.89
81704;BME280;71117;52.352;4.808;2023-08-08T02:48:50;101433.69;;;15.01;69.41
81704;BME280;71117;52.352;4.808;2023-08-08T02:51:16;101435.44;;;15.01;69.12
81704;BME280;71117;52.352;4.808;2023-08-08T02:53:41;101423.88;;;14.93;69.67
81704;BME280;71117;52.352;4.808;2023-08-08T02:56:07;101429.94;;;14.81;70.25
81704;BME280;71117;52.352;4.808;2023-08-08T02:58:32;101429.03;;;14.76;70.83
81704;BME280;71117;52.352;4.808;2023-08-08T03:01:00;101426.38;;;14.76;70.42
81704;BME280;71117;52.352;4.808;2023-08-08T03:03:26;101423.63;;;14.68;71.13
81704;BME280;71117;52.352;4.808;2023-08-08T03:05:51;101420.84;;;14.58;71.25
81704;BME280;71117;52.352;4.808;2023-08-08T03:08:16;101419.13;;;14.60;70.34
81704;BME280;71117;52.352;4.808;2023-08-08T03:10:41;101417.22;;;14.49;70.56
81704;BME280;71117;52.352;4.808;2023-08-08T03:13:07;101412.75;;;14.47;69.91
81704;BME280;71117;52.352;4.808;2023-08-08T03:15:32;101418.91;;;14.44;69.56
81704;BME280;71117;52.352;4.808;2023-08-08T03:17:58;101414.50;;;14.46;69.34
81704;BME280;71117;52.352;4.808;2023-08-08T03:20:23;101411.91;;;14.48;68.43
81704;BME280;71117;52.352;4.808;2023-08-08T03:22:48;101419.78;;;14.45;68.36
81704;BME280;71117;52.352;4.808;2023-08-08T03:25:14;101403.72;;;14.33;69.46
81704;BME280;71117;52.352;4.808;2023-08-08T03:27:39;101408.88;;;14.19;70.02
81704;BME280;71117;52.352;4.808;2023-08-08T03:30:05;101400.03;;;14.20;68.80
81704;BME280;71117;52.352;4.808;2023-08-08T03:32:31;101398.31;;;14.25;69.10
81704;BME280;71117;52.352;4.808;2023-08-08T03:34:56;101406.31;;;14.26;69.01
81704;BME280;71117;52.352;4.808;2023-08-08T03:37:21;101409.59;;;14.07;70.26
81704;BME280;71117;52.352;4.808;2023-08-08T03:39:47;101406.00;;;14.00;70.07
81704;BME280;71117;52.352;4.808;2023-08-08T03:42:12;101402.47;;;14.01;70.11
81704;BME280;71117;52.352;4.808;2023-08-08T03:44:37;101396.25;;;13.98;70.77
81704;BME280;71117;52.352;4.808;2023-08-08T03:47:03;101388.97;;;13.83;71.74
81704;BME280;71117;52.352;4.808;2023-08-08T03:49:29;101395.06;;;13.76;71.89
81704;BME280;71117;52.352;4.808;2023-08-08T03:51:54;101395.00;;;13.73;72.32
81704;BME280;71117;52.352;4.808;2023-08-08T03:54:19;101388.97;;;13.85;72.37
81704;BME280;71117;52.352;4.808;2023-08-08T03:56:44;101391.63;;;13.85;72.23
81704;BME280;71117;52.352;4.808;2023-08-08T03:59:10;101389.03;;;13.91;71.96
81704;BME280;71117;52.352;4.808;2023-08-08T04:01:35;101395.28;;;13.94;71.89
81704;BME280;71117;52.352;4.808;2023-08-08T04:04:03;101392.78;;;14.07;70.96
81704;BME280;71117;52.352;4.808;2023-08-08T04:06:29;101391.00;;;14.06;71.09
81704;BME280;71117;52.352;4.808;2023-08-08T04:08:54;101390.88;;;13.96;72.18
81704;BME280;71117;52.352;4.808;2023-08-08T04:11:20;101389.09;;;13.94;72.11
81704;BME280;71117;52.352;4.808;2023-08-08T04:13:45;101389.03;;;13.88;73.28
81704;BME280;71117;52.352;4.808;2023-08-08T04:16:10;101388.97;;;13.83;73.03
81704;BME280;71117;52.352;4.808;2023-08-08T04:18:35;101390.88;;;13.93;72.86
81704;BME280;71117;52.352;4.808;2023-08-08T04:21:01;101399.66;;;13.89;73.63
81704;BME280;71117;52.352;4.808;2023-08-08T04:23:26;101382.78;;;13.86;73.76
81704;BME280;71117;52.352;4.808;2023-08-08T04:25:52;101393.38;;;13.81;74.06
81704;BME280;71117;52.352;4.808;2023-08-08T04:28:18;101386.22;;;13.75;74.66
81704;BME280;71117;52.352;4.808;2023-08-08T04:30:43;101386.16;;;13.72;74.02
81704;BME280;71117;52.352;4.808;2023-08-08T04:33:09;101391.47;;;13.71;74.42
81704;BME280;71117;52.352;4.808;2023-08-08T04:35:34;101387.97;;;13.75;73.26
81704;BME280;71117;52.352;4.808;2023-08-08T04:38:00;101389.81;;;13.81;72.36
81704;BME280;71117;52.352;4.808;2023-08-08T04:40:25;101390.72;;;13.83;71.73
81704;BME280;71117;52.352;4.808;2023-08-08T04:42:51;101394.47;;;13.98;71.95
81704;BME280;71117;52.352;4.808;2023-08-08T04:45:17;101395.44;;;14.05;70.80
81704;BME280;71117;52.352;4.808;2023-08-08T04:47:42;101399.81;;;14.01;71.36
81704;BME280;71117;52.352;4.808;2023-08-08T04:50:08;101404.16;;;13.96;71.86
81704;BME280;71117;52.352;4.808;2023-08-08T04:52:33;101397.97;;;13.96;71.79
81704;BME280;71117;52.352;4.808;2023-08-08T04:54:58;101399.72;;;13.95;71.73
81704;BME280;71117;52.352;4.808;2023-08-08T04:57:24;101404.09;;;13.90;72.96
81704;BME280;71117;52.352;4.808;2023-08-08T04:59:49;101407.53;;;13.83;72.19
81704;BME280;71117;52.352;4.808;2023-08-08T05:02:14;101402.31;;;13.91;71.93
81704;BME280;71117;52.352;4.808;2023-08-08T05:04:40;101397.00;;;13.89;72.02
81704;BME280;71117;52.352;4.808;2023-08-08T05:07:05;101403.19;;;13.88;72.64
81704;BME280;71117;52.352;4.808;2023-08-08T05:09:31;101397.88;;;13.88;71.97
81704;BME280;71117;52.352;4.808;2023-08-08T05:11:57;101390.00;;;13.94;71.83
81704;BME280;71117;52.352;4.808;2023-08-08T05:14:22;101389.09;;;13.94;70.43
81704;BME280;71117;52.352;4.808;2023-08-08T05:16:47;101393.53;;;13.93;72.03
81704;BME280;71117;52.352;4.808;2023-08-08T05:19:13;101397.25;;;14.09;69.44
81704;BME280;71117;52.352;4.808;2023-08-08T05:21:38;101385.78;;;14.12;69.26
81704;BME280;71117;52.352;4.808;2023-08-08T05:24:04;101387.47;;;14.07;69.56
81704;BME280;71117;52.352;4.808;2023-08-08T05:26:29;101397.22;;;14.06;69.82
81704;BME280;71117;52.352;4.808;2023-08-08T05:28:55;101392.78;;;14.03;70.55
81704;BME280;71117;52.352;4.808;2023-08-08T05:31:20;101397.34;;;14.17;70.18
81704;BME280;71117;52.352;4.808;2023-08-08T05:33:47;101398.31;;;14.25;70.11
81704;BME280;71117;52.352;4.808;2023-08-08T05:36:13;101403.66;;;14.26;71.04
81704;BME280;71117;52.352;4.808;2023-08-08T05:38:38;101400.13;;;14.30;70.87
81704;BME280;71117;52.352;4.808;2023-08-08T05:41:03;101398.28;;;14.22;71.95
81704;BME280;71117;52.352;4.808;2023-08-08T05:43:29;101403.66;;;14.26;71.55
81704;BME280;71117;52.352;4.808;2023-08-08T05:45:54;101401.06;;;14.33;71.22
81704;BME280;71117;52.352;4.808;2023-08-08T05:48:19;101405.56;;;14.37;70.79
81704;BME280;71117;52.352;4.808;2023-08-08T05:50:45;101397.59;;;14.40;70.28
81704;BME280;71117;52.352;4.808;2023-08-08T05:53:10;101401.13;;;14.37;70.46
81704;BME280;71117;52.352;4.808;2023-08-08T05:55:35;101398.53;;;14.45;69.16
81704;BME280;71117;52.352;4.808;2023-08-08T05:58:01;101402.22;;;14.56;67.62
81704;BME280;71117;52.352;4.808;2023-08-08T06:00:26;101404.00;;;14.57;68.85
81704;BME280;71117;52.352;4.808;2023-08-08T06:02:51;101403.13;;;14.55;69.21
81704;BME280;71117;52.352;4.808;2023-08-08T06:05:17;101411.97;;;14.55;70.24
81704;BME280;71117;52.352;4.808;2023-08-08T06:07:43;101398.75;;;14.63;69.59
81704;BME280;71117;52.352;4.808;2023-08-08T06:10:10;101392.59;;;14.66;69.13
81704;BME280;71117;52.352;4.808;2023-08-08T06:12:35;101399.78;;;14.79;68.44
81704;BME280;71117;52.352;4.808;2023-08-08T06:15:01;101398.97;;;14.86;68.20
81704;BME280;71117;52.352;4.808;2023-08-08T06:17:26;101395.53;;;14.98;68.33
81704;BME280;71117;52.352;4.808;2023-08-08T06:19:51;101404.38;;;14.95;67.82
81704;BME280;71117;52.352;4.808;2023-08-08T06:22:19;101407.91;;;14.96;68.85
81704;BME280;71117;52.352;4.808;2023-08-08T06:24:44;101415.06;;;15.00;68.08
81704;BME280;71117;52.352;4.808;2023-08-08T06:27:10;101416.03;;;15.11;67.64
81704;BME280;71117;52.352;4.808;2023-08-08T06:29:35;101407.19;;;15.12;67.71
81704;BME280;71117;52.352;4.808;2023-08-08T06:32:00;101408.09;;;15.19;67.43
81704;BME280;71117;52.352;4.808;2023-08-08T06:34:26;101406.41;;;15.30;67.29
81704;BME280;71117;52.352;4.808;2023-08-08T06:36:51;101410.03;;;15.38;67.68
81704;BME280;71117;52.352;4.808;2023-08-08T06:39:16;101418.09;;;15.50;66.88
81704;BME280;71117;52.352;4.808;2023-08-08T06:41:44;101408.41;;;15.60;66.42
81704;BME280;71117;52.352;4.808;2023-08-08T06:44:09;101412.06;;;15.73;66.40
81704;BME280;71117;52.352;4.808;2023-08-08T06:46:35;101412.94;;;15.75;66.61
81704;BME280;71117;52.352;4.808;2023-08-08T06:49:00;101409.44;;;15.82;66.78
81704;BME280;71117;52.352;4.808;2023-08-08T06:51:26;101409.44;;;15.88;66.18
81704;BME280;71117;52.352;4.808;2023-08-08T06:53:52;101406.75;;;15.82;66.53
81704;BME280;71117;52.352;4.808;2023-08-08T06:56:18;101407.63;;;15.75;67.13
81704;BME280;71117;52.352;4.808;2023-08-08T06:58:43;101406.78;;;15.86;66.49
81704;BME280;71117;52.352;4.808;2023-08-08T07:01:09;101402.38;;;15.92;66.61
81704;BME280;71117;52.352;4.808;2023-08-08T07:03:35;101410.41;;;15.99;65.45
81704;BME280;71117;52.352;4.808;2023-08-08T07:06:00;101401.59;;;16.22;64.45
81704;BME280;71117;52.352;4.808;2023-08-08T07:08:25;101409.69;;;16.45;64.30
81704;BME280;71117;52.352;4.808;2023-08-08T07:10:51;101397.31;;;16.71;63.00
81704;BME280;71117;52.352;4.808;2023-08-08T07:13:16;101397.31;;;16.76;63.23
81704;BME280;71117;52.352;4.808;2023-08-08T07:15:41;101402.66;;;16.71;64.13
81704;BME280;71117;52.352;4.808;2023-08-08T07:18:07;101406.16;;;16.61;65.81
81704;BME280;71117;52.352;4.808;2023-08-08T07:20:32;101408.78;;;16.49;65.22
81704;BME280;71117;52.352;4.808;2023-08-08T07:22:58;101400.78;;;16.41;66.67
81704;BME280;71117;52.352;4.808;2023-08-08T07:25:25;101407.00;;;16.35;68.21
81704;BME280;71117;52.352;4.808;2023-08-08T07:27:51;101412.34;;;16.49;66.73
81704;BME280;71117;52.352;4.808;2023-08-08T07:30:16;101406.13;;;16.46;66.25
81704;BME280;71117;52.352;4.808;2023-08-08T07:32:41;101410.56;;;16.50;66.06
81704;BME280;71117;52.352;4.808;2023-08-08T07:35:07;101410.59;;;16.56;64.06
81704;BME280;71117;52.352;4.808;2023-08-08T07:37:34;101411.56;;;16.75;64.54
81704;BME280;71117;52.352;4.808;2023-08-08T07:39:59;101405.34;;;16.92;64.27
81704;BME280;71117;52.352;4.808;2023-08-08T07:42:25;101408.91;;;17.17;62.69
81704;BME280;71117;52.352;4.808;2023-08-08T07:44:50;101396.47;;;17.07;62.25
81704;BME280;71117;52.352;4.808;2023-08-08T07:47:16;101392.88;;;16.99;62.86
81704;BME280;71117;52.352;4.808;2023-08-08T07:49:41;101400.00;;;16.99;62.63
81704;BME280;71117;52.352;4.808;2023-08-08T07:52:06;101396.44;;;17.13;62.42
81704;BME280;71117;52.352;4.808;2023-08-08T07:54:33;101399.13;;;17.24;62.06
81704;BME280;71117;52.352;4.808;2023-08-08T07:56:58;101394.66;;;17.17;62.70
81704;BME280;71117;52.352;4.808;2023-08-08T07:59:24;101398.22;;;17.19;61.54
81704;BME280;71117;52.352;4.808;2023-08-08T08:01:49;101386.66;;;17.14;60.51
81704;BME280;71117;52.352;4.808;2023-08-08T08:04:14;101392.00;;;17.23;60.93
81704;BME280;71117;52.352;4.808;2023-08-08T08:06:40;101395.56;;;17.25;61.22
81704;BME280;71117;52.352;4.808;2023-08-08T08:09:05;101396.44;;;17.27;61.37
81704;BME280;71117;52.352;4.808;2023-08-08T08:11:30;101388.41;;;17.41;62.05
81704;BME280;71117;52.352;4.808;2023-08-08T08:13:56;101401.72;;;17.61;60.90
81704;BME280;71117;52.352;4.808;2023-08-08T08:16:23;101395.47;;;17.60;60.45
81704;BME280;71117;52.352;4.808;2023-08-08T08:18:48;101405.28;;;17.44;60.18
81704;BME280;71117;52.352;4.808;2023-08-08T08:21:14;101395.50;;;17.63;60.07
81704;BME280;71117;52.352;4.808;2023-08-08T08:23:39;101398.16;;;17.74;58.88
81704;BME280;71117;52.352;4.808;2023-08-08T08:26:05;101387.47;;;17.60;59.48
81704;BME280;71117;52.352;4.808;2023-08-08T08:28:31;101399.97;;;17.37;60.45
81704;BME280;71117;52.352;4.808;2023-08-08T08:30:56;101397.31;;;17.43;59.49
81704;BME280;71117;52.352;4.808;2023-08-08T08:33:21;101406.19;;;17.45;59.22
81704;BME280;71117;52.352;4.808;2023-08-08T08:35:47;101396.44;;;17.41;60.89
81704;BME280;71117;52.352;4.808;2023-08-08T08:38:12;101403.47;;;17.69;60.96
81704;BME280;71117;52.352;4.808;2023-08-08T08:40:40;101380.25;;;17.97;59.69
81704;BME280;71117;52.352;4.808;2023-08-08T08:43:07;101386.47;;;18.03;59.04
81704;BME280;71117;52.352;4.808;2023-08-08T08:45:38;101395.34;;;18.06;60.19
81704;BME280;71117;52.352;4.808;2023-08-08T08:48:09;101408.81;;;17.82;59.46
81704;BME280;71117;52.352;4.808;2023-08-08T08:50:36;101407.03;;;17.70;59.06
81704;BME280;71117;52.352;4.808;2023-08-08T08:53:03;101406.16;;;17.66;59.54
81704;BME280;71117;52.352;4.808;2023-08-08T08:55:30;101415.06;;;17.56;60.52
81704;BME280;71117;52.352;4.808;2023-08-08T08:57:55;101420.41;;;17.76;59.98
81704;BME280;71117;52.352;4.808;2023-08-08T09:00:20;101398.09;;;17.92;58.82
81704;BME280;71117;52.352;4.808;2023-08-08T09:02:46;101431.91;;;17.95;58.85
81704;BME280;71117;52.352;4.808;2023-08-08T09:05:13;101416.84;;;17.69;57.98
81704;BME280;71117;52.352;4.808;2023-08-08T09:07:38;101412.38;;;17.81;58.86
81704;BME280;71117;52.352;4.808;2023-08-08T09:10:04;101417.75;;;17.75;59.91
81704;BME280;71117;52.352;4.808;2023-08-08T09:12:33;101418.56;;;17.93;59.75
81704;BME280;71117;52.352;4.808;2023-08-08T09:14:59;101426.50;;;18.16;58.18
81704;BME280;71117;52.352;4.808;2023-08-08T09:17:27;101422.13;;;17.95;56.99
81704;BME280;71117;52.352;4.808;2023-08-08T09:19:54;101410.50;;;18.10;57.77
81704;BME280;71117;52.352;4.808;2023-08-08T09:22:20;101425.63;;;18.11;58.14
81704;BME280;71117;52.352;4.808;2023-08-08T09:24:45;101422.16;;;17.88;59.74
81704;BME280;71117;52.352;4.808;2023-08-08T09:27:12;101426.63;;;17.83;59.13
81704;BME280;71117;52.352;4.808;2023-08-08T09:29:37;101410.50;;;18.10;59.06
81704;BME280;71117;52.352;4.808;2023-08-08T09:32:04;101413.03;;;18.38;57.01
81704;BME280;71117;52.352;4.808;2023-08-08T09:34:30;101411.38;;;18.15;58.31
81704;BME280;71117;52.352;4.808;2023-08-08T09:36:55;101409.53;;;18.25;58.79
81704;BME280;71117;52.352;4.808;2023-08-08T09:39:21;101415.59;;;18.51;57.74
81704;BME280;71117;52.352;4.808;2023-08-08T09:41:46;101436.94;;;18.68;56.32
81704;BME280;71117;52.352;4.808;2023-08-08T09:44:12;101423.56;;;18.68;56.48
81704;BME280;71117;52.352;4.808;2023-08-08T09:46:39;101426.47;;;18.26;55.08
81704;BME280;71117;52.352;4.808;2023-08-08T09:49:05;101429.22;;;18.07;56.36
81704;BME280;71117;52.352;4.808;2023-08-08T09:51:30;101435.47;;;17.98;57.50
81704;BME280;71117;52.352;4.808;2023-08-08T09:53:56;101432.75;;;18.18;57.02
81704;BME280;71117;52.352;4.808;2023-08-08T09:56:23;101437.88;;;18.60;55.91
81704;BME280;71117;52.352;4.808;2023-08-08T09:58:50;101438.59;;;18.92;55.80
81704;BME280;71117;52.352;4.808;2023-08-08T10:01:16;101435.19;;;18.64;54.52
81704;BME280;71117;52.352;4.808;2023-08-08T10:03:42;101429.81;;;18.67;56.50
81704;BME280;71117;52.352;4.808;2023-08-08T10:06:10;101426.13;;;18.88;55.63
81704;BME280;71117;52.352;4.808;2023-08-08T10:08:35;101444.03;;;18.77;56.11
81704;BME280;71117;52.352;4.808;2023-08-08T10:11:02;101419.84;;;18.91;55.30
81704;BME280;71117;52.352;4.808;2023-08-08T10:13:27;101425.34;;;18.68;57.18
81704;BME280;71117;52.352;4.808;2023-08-08T10:15:54;101419.09;;;18.66;56.51
81704;BME280;71117;52.352;4.808;2023-08-08T10:18:23;101419.84;;;18.92;56.80
81704;BME280;71117;52.352;4.808;2023-08-08T10:20:50;101415.22;;;19.13;56.40
81704;BME280;71117;52.352;4.808;2023-08-08T10:23:17;101407.22;;;19.10;55.31
81704;BME280;71117;52.352;4.808;2023-08-08T10:25:54;101418.06;;;18.93;55.79
81704;BME280;71117;52.352;4.808;2023-08-08T10:28:20;101446.53;;;19.05;55.07
81704;BME280;71117;52.352;4.808;2023-08-08T10:30:47;101413.31;;;19.27;54.68
81704;BME280;71117;52.352;4.808;2023-08-08T10:33:23;101414.19;;;19.31;54.79
81704;BME280;71117;52.352;4.808;2023-08-08T10:36:04;101414.03;;;19.44;53.95
81704;BME280;71117;52.352;4.808;2023-08-08T10:38:48;101420.44;;;19.31;54.52
81704;BME280;71117;52.352;4.808;2023-08-08T10:41:20;101428.75;;;19.93;54.02
81704;BME280;71117;52.352;4.808;2023-08-08T10:43:49;101421.66;;;19.86;54.22
81704;BME280;71117;52.352;4.808;2023-08-08T10:46:31;101418.47;;;20.27;52.04
81704;BME280;71117;52.352;4.808;2023-08-08T10:48:58;101415.53;;;20.50;53.34
81704;BME280;71117;52.352;4.808;2023-08-08T10:51:45;101419.50;;;20.81;51.44
81704;BME280;71117;52.352;4.808;2023-08-08T10:54:22;101414.06;;;20.23;52.52
81704;BME280;71117;52.352;4.808;2023-08-08T10:56:54;101420.19;;;20.31;52.66
81704;BME280;71117;52.352;4.808;2023-08-08T10:59:40;101422.31;;;20.06;52.71
81704;BME280;71117;52.352;4.808;2023-08-08T11:02:06;101428.50;;;19.26;55.10
81704;BME280;71117;52.352;4.808;2023-08-08T11:04:33;101427.97;;;18.80;55.68
81704;BME280;71117;52.352;4.808;2023-08-08T11:07:00;101437.88;;;20.50;52.34
81704;BME280;71117;52.352;4.808;2023-08-08T11:09:25;101426.63;;;20.21;53.51
81704;BME280;71117;52.352;4.808;2023-08-08T11:11:51;101433.38;;;20.51;52.11
81704;BME280;71117;52.352;4.808;2023-08-08T11:14:20;101427.50;;;20.88;52.17
81704;BME280;71117;52.352;4.808;2023-08-08T11:16:47;101426.47;;;21.49;49.84
81704;BME280;71117;52.352;4.808;2023-08-08T11:19:13;101432.41;;;21.13;50.53
81704;BME280;71117;52.352;4.808;2023-08-08T11:21:43;101432.72;;;20.30;51.65
81704;BME280;71117;52.352;4.808;2023-08-08T11:24:09;101433.59;;;20.34;52.81
81704;BME280;71117;52.352;4.808;2023-08-08T11:26:36;101427.00;;;20.58;52.42
81704;BME280;71117;52.352;4.808;2023-08-08T11:29:03;101417.66;;;20.85;51.38
81704;BME280;71117;52.352;4.808;2023-08-08T11:31:29;101430.94;;;20.29;52.37
81704;BME280;71117;52.352;4.808;2023-08-08T11:33:56;101437.00;;;20.48;51.32
81704;BME280;71117;52.352;4.808;2023-08-08T11:36:22;101441.31;;;20.60;52.40
81704;BME280;71117;52.352;4.808;2023-08-08T11:38:49;101425.41;;;21.05;50.04
81704;BME280;71117;52.352;4.808;2023-08-08T11:41:17;101421.88;;;22.43;45.97
81704;BME280;71117;52.352;4.808;2023-08-08T11:43:45;101425.00;;;21.79;48.00
81704;BME280;71117;52.352;4.808;2023-08-08T11:46:15;101428.16;;;21.00;49.89
81704;BME280;71117;52.352;4.808;2023-08-08T11:48:41;101435.25;;;20.44;52.36
81704;BME280;71117;52.352;4.808;2023-08-08T11:51:07;101441.94;;;20.79;53.14
81704;BME280;71117;52.352;4.808;2023-08-08T11:53:35;101427.94;;;19.85;52.14
81704;BME280;71117;52.352;4.808;2023-08-08T11:56:03;101447.88;;;19.51;53.22
81704;BME280;71117;52.352;4.808;2023-08-08T11:58:29;101446.13;;;19.49;52.55
81704;BME280;71117;52.352;4.808;2023-08-08T12:00:56;101429.03;;;19.67;52.80
81704;BME280;71117;52.352;4.808;2023-08-08T12:03:22;101428.25;;;20.31;52.04
81704;BME280;71117;52.352;4.808;2023-08-08T12:05:49;101440.06;;;20.84;50.23
81704;BME280;71117;52.352;4.808;2023-08-08T12:08:19;101427.06;;;20.53;51.44
81704;BME280;71117;52.352;4.808;2023-08-08T12:10:49;101411.81;;;21.67;50.22
81704;BME280;71117;52.352;4.808;2023-08-08T12:13:20;101422.56;;;21.14;50.23
81704;BME280;71117;52.352;4.808;2023-08-08T12:15:46;101420.56;;;20.71;51.61
81704;BME280;71117;52.352;4.808;2023-08-08T12:18:11;101426.09;;;21.18;49.91
81704;BME280;71117;52.352;4.808;2023-08-08T12:20:37;101417.44;;;20.99;49.61
81704;BME280;71117;52.352;4.808;2023-08-08T12:23:02;101439.19;;;20.16;52.27
81704;BME280;71117;52.352;4.808;2023-08-08T12:25:28;101420.38;;;20.83;52.30
81704;BME280;71117;52.352;4.808;2023-08-08T12:27:53;101418.13;;;21.64;50.03
81704;BME280;71117;52.352;4.808;2023-08-08T12:30:18;101421.41;;;20.07;53.76
81704;BME280;71117;52.352;4.808;2023-08-08T12:32:44;101429.75;;;19.83;53.34
81704;BME280;71117;52.352;4.808;2023-08-08T12:35:09;101430.03;;;20.30;53.72
81704;BME280;71117;52.352;4.808;2023-08-08T12:37:35;101444.84;;;19.93;53.74
81704;BME280;71117;52.352;4.808;2023-08-08T12:40:00;101428.88;;;21.64;50.08
81704;BME280;71117;52.352;4.808;2023-08-08T12:42:28;101425.97;;;22.61;45.54
81704;BME280;71117;52.352;4.808;2023-08-08T12:44:53;101454.94;;;21.06;49.84